sensor_id;sensor_type;location;lat;lon;timestamp;P1;durP1;ratioP1;P2;durP2;ratioP2
20080;SDS011;10200;49.232;9.222;2023-12-07T00:01:48;18.77;;;11.90;;
20080;SDS011;10200;49.232;9.222;2023-12-07T00:04:14;17.53;;;12.20;;
20080;SDS011;10200;49.232;9.222;2023-12-07T00:06:39;19.03;;;12.20;;
20080;SDS011;10200;49.232;9.222;2023-12-07T00:09:06;19.20;;;11.50;;
20080;SDS011;10200;49.232;9.222;2023-12-07T00:11:31;21.00;;;13.07;;
20080;SDS011;10200;49.232;9.222;2023-12-07T00:13:57;16.70;;;12.30;;
20080;SDS011;10200;49.232;9.222;2023-12-07T00:16:24;14.97;;;10.93;;
20080;SDS011;10200;49.232;9.222;2023-12-07T00:18:49;17.13;;;11.60;;
20080;SDS011;10200;49.232;9.222;2023-12-07T00:21:15;20.60;;;13.40;;
20080;SDS011;10200;49.232;9.222;2023-12-07T00:23:41;19.93;;;12.03;;
20080;SDS011;10200;49.232;9.222;2023-12-07T00:26:06;18.43;;;12.23;;
20080;SDS011;10200;49.232;9.222;2023-12-07T00:28:32;18.70;;;12.50;;
20080;SDS011;10200;49.232;9.222;2023-12-07T00:30:58;14.53;;;10.63;;
20080;SDS011;10200;49.232;9.222;2023-12-07T00:33:24;19.43;;;12.40;;
20080;SDS011;10200;49.232;9.222;2023-12-07T00:35:51;21.07;;;11.27;;
20080;SDS011;10200;49.232;9.222;2023-12-07T00:38:16;18.73;;;11.70;;
20080;SDS011;10200;49.232;9.222;2023-12-07T00:40:42;21.67;;;13.13;;
20080;SDS011;10200;49.232;9.222;2023-12-07T00:43:08;19.13;;;12.83;;
20080;SDS011;10200;49.232;9.222;2023-12-07T00:45:33;20.13;;;13.20;;
20080;SDS011;10200;49.232;9.222;2023-12-07T00:47:59;18.37;;;11.57;;
20080;SDS011;10200;49.232;9.222;2023-12-07T00:50:26;21.53;;;12.40;;
20080;SDS011;10200;49.232;9.222;2023-12-07T00:52:51;21.37;;;12.87;;
20080;SDS011;10200;49.232;9.222;2023-12-07T00:55:17;20.67;;;12.60;;
20080;SDS011;10200;49.232;9.222;2023-12-07T00:57:43;18.27;;;12.57;;
20080;SDS011;10200;49.232;9.222;2023-12-07T01:00:08;19.33;;;12.63;;
20080;SDS011;10200;49.232;9.222;2023-12-07T01:02:35;19.73;;;12.67;;
20080;SDS011;10200;49.232;9.222;2023-12-07T01:05:01;20.80;;;12.87;;
20080;SDS011;10200;49.232;9.222;2023-12-07T01:07:26;15.33;;;12.17;;
20080;SDS011;10200;49.232;9.222;2023-12-07T01:09:52;21.40;;;12.90;;
20080;SDS011;10200;49.232;9.222;2023-12-07T01:12:18;17.53;;;11.73;;
20080;SDS011;10200;49.232;9.222;2023-12-07T01:14:43;19.63;;;12.17;;
20080;SDS011;10200;49.232;9.222;2023-12-07T01:17:09;16.97;;;12.07;;
20080;SDS011;10200;49.232;9.222;2023-12-07T01:19:34;16.17;;;10.87;;
20080;SDS011;10200;49.232;9.222;2023-12-07T01:22:01;16.23;;;11.30;;
20080;SDS011;10200;49.232;9.222;2023-12-07T01:24:26;21.90;;;11.77;;
20080;SDS011;10200;49.232;9.222;2023-12-07T01:27:01;17.47;;;12.23;;
20080;SDS011;10200;49.232;9.222;2023-12-07T01:29:32;18.77;;;12.63;;
20080;SDS011;10200;49.232;9.222;2023-12-07T01:31:58;16.13;;;11.20;;
20080;SDS011;10200;49.232;9.222;2023-12-07T01:34:24;18.93;;;12.07;;
20080;SDS011;10200;49.232;9.222;2023-12-07T01:36:49;14.77;;;10.67;;
20080;SDS011;10200;49.232;9.222;2023-12-07T01:39:15;15.67;;;11.67;;
20080;SDS011;10200;49.232;9.222;2023-12-07T01:41:41;18.47;;;11.70;;
20080;SDS011;10200;49.232;9.222;2023-12-07T01:44:07;16.50;;;11.57;;
20080;SDS011;10200;49.232;9.222;2023-12-07T01:46:33;17.60;;;11.50;;
20080;SDS011;10200;49.232;9.222;2023-12-07T01:48:59;14.83;;;10.67;;
20080;SDS011;10200;49.232;9.222;2023-12-07T01:51:27;14.43;;;10.37;;
20080;SDS011;10200;49.232;9.222;2023-12-07T01:53:53;16.37;;;11.57;;
20080;SDS011;10200;49.232;9.222;2023-12-07T01:56:19;15.83;;;11.23;;
20080;SDS011;10200;49.232;9.222;2023-12-07T01:58:46;14.87;;;10.23;;
20080;SDS011;10200;49.232;9.222;2023-12-07T02:01:12;13.70;;;10.07;;
20080;SDS011;10200;49.232;9.222;2023-12-07T02:03:40;17.03;;;10.60;;
20080;SDS011;10200;49.232;9.222;2023-12-07T02:06:06;15.43;;;10.43;;
20080;SDS011;10200;49.232;9.222;2023-12-07T02:08:33;15.80;;;11.07;;
20080;SDS011;10200;49.232;9.222;2023-12-07T02:11:07;13.63;;;9.83;;
20080;SDS011;10200;49.232;9.222;2023-12-07T02:13:34;13.67;;;9.03;;
20080;SDS011;10200;49.232;9.222;2023-12-07T02:16:07;13.47;;;9.63;;
20080;SDS011;10200;49.232;9.222;2023-12-07T02:18:43;14.60;;;10.00;;
20080;SDS011;10200;49.232;9.222;2023-12-07T02:21:46;17.40;;;11.53;;
20080;SDS011;10200;49.232;9.222;2023-12-07T02:24:17;13.40;;;9.33;;
20080;SDS011;10200;49.232;9.222;2023-12-07T02:26:46;13.60;;;9.30;;
20080;SDS011;10200;49.232;9.222;2023-12-07T02:29:13;14.30;;;10.43;;
20080;SDS011;10200;49.232;9.222;2023-12-07T02:31:38;14.43;;;9.87;;
20080;SDS011;10200;49.232;9.222;2023-12-07T02:34:04;13.00;;;9.60;;
20080;SDS011;10200;49.232;9.222;2023-12-07T02:36:30;15.40;;;10.73;;
20080;SDS011;10200;49.232;9.222;2023-12-07T02:38:58;13.63;;;10.13;;
20080;SDS011;10200;49.232;9.222;2023-12-07T02:41:26;14.70;;;10.23;;
20080;SDS011;10200;49.232;9.222;2023-12-07T02:43:53;13.73;;;9.27;;
20080;SDS011;10200;49.232;9.222;2023-12-07T02:46:19;14.57;;;10.27;;
20080;SDS011;10200;49.232;9.222;2023-12-07T02:48:45;13.20;;;10.00;;
20080;SDS011;10200;49.232;9.222;2023-12-07T02:51:11;12.43;;;9.30;;
20080;SDS011;10200;49.232;9.222;2023-12-07T02:53:38;16.03;;;10.30;;
20080;SDS011;10200;49.232;9.222;2023-12-07T02:56:03;15.93;;;9.67;;
20080;SDS011;10200;49.232;9.222;2023-12-07T02:58:29;14.87;;;10.07;;
20080;SDS011;10200;49.232;9.222;2023-12-07T03:00:55;14.40;;;9.70;;
20080;SDS011;10200;49.232;9.222;2023-12-07T03:03:21;13.63;;;10.07;;
20080;SDS011;10200;49.232;9.222;2023-12-07T03:05:47;13.60;;;9.63;;
20080;SDS011;10200;49.232;9.222;2023-12-07T03:08:12;16.57;;;10.53;;
20080;SDS011;10200;49.232;9.222;2023-12-07T03:10:38;14.90;;;9.83;;
20080;SDS011;10200;49.232;9.222;2023-12-07T03:13:03;13.53;;;9.73;;
20080;SDS011;10200;49.232;9.222;2023-12-07T03:15:29;14.10;;;10.07;;
20080;SDS011;10200;49.232;9.222;2023-12-07T03:17:55;16.30;;;10.23;;
20080;SDS011;10200;49.232;9.222;2023-12-07T03:20:21;15.00;;;10.17;;
20080;SDS011;10200;49.232;9.222;2023-12-07T03:22:51;17.87;;;10.80;;
20080;SDS011;10200;49.232;9.222;2023-12-07T03:25:16;17.37;;;9.77;;
20080;SDS011;10200;49.232;9.222;2023-12-07T03:27:42;15.07;;;10.13;;
20080;SDS011;10200;49.232;9.222;2023-12-07T03:30:08;15.27;;;10.27;;
20080;SDS011;10200;49.232;9.222;2023-12-07T03:32:34;13.87;;;10.00;;
20080;SDS011;10200;49.232;9.222;2023-12-07T03:34:59;14.57;;;9.97;;
20080;SDS011;10200;49.232;9.222;2023-12-07T03:37:25;17.10;;;10.03;;
20080;SDS011;10200;49.232;9.222;2023-12-07T03:39:50;16.53;;;9.67;;
20080;SDS011;10200;49.232;9.222;2023-12-07T03:42:16;19.70;;;11.20;;
20080;SDS011;10200;49.232;9.222;2023-12-07T03:44:43;15.03;;;10.43;;
20080;SDS011;10200;49.232;9.222;2023-12-07T03:47:09;16.40;;;11.43;;
20080;SDS011;10200;49.232;9.222;2023-12-07T03:49:35;13.10;;;10.07;;
20080;SDS011;10200;49.232;9.222;2023-12-07T03:52:01;15.30;;;10.03;;
20080;SDS011;10200;49.232;9.222;2023-12-07T03:54:27;14.87;;;10.47;;
20080;SDS011;10200;49.232;9.222;2023-12-07T03:56:52;16.87;;;10.17;;
20080;SDS011;10200;49.232;9.222;2023-12-07T03:59:18;16.30;;;11.03;;
20080;SDS011;10200;49.232;9.222;2023-12-07T04:01:44;16.77;;;10.77;;
20080;SDS011;10200;49.232;9.222;2023-12-07T04:04:09;13.63;;;9.10;;
20080;SDS011;10200;49.232;9.222;2023-12-07T04:06:35;12.13;;;8.97;;
20080;SDS011;10200;49.232;9.222;2023-12-07T04:09:01;13.40;;;8.77;;
20080;SDS011;10200;49.232;9.222;2023-12-07T04:11:27;14.20;;;9.53;;
20080;SDS011;10200;49.232;9.222;2023-12-07T04:13:53;17.87;;;9.47;;
20080;SDS011;10200;49.232;9.222;2023-12-07T04:16:18;13.57;;;9.40;;
20080;SDS011;10200;49.232;9.222;2023-12-07T04:18:44;11.10;;;8.93;;
20080;SDS011;10200;49.232;9.222;2023-12-07T04:21:10;12.60;;;8.17;;
20080;SDS011;10200;49.232;9.222;2023-12-07T04:23:35;10.27;;;7.83;;
20080;SDS011;10200;49.232;9.222;2023-12-07T04:26:01;12.00;;;7.60;;
20080;SDS011;10200;49.232;9.222;2023-12-07T04:28:27;13.10;;;7.97;;
20080;SDS011;10200;49.232;9.222;2023-12-07T04:30:52;13.50;;;8.50;;
20080;SDS011;10200;49.232;9.222;2023-12-07T04:33:18;14.87;;;7.30;;
20080;SDS011;10200;49.232;9.222;2023-12-07T04:35:44;13.17;;;7.73;;
20080;SDS011;10200;49.232;9.222;2023-12-07T04:38:10;12.90;;;7.87;;
20080;SDS011;10200;49.232;9.222;2023-12-07T04:40:36;18.80;;;8.70;;
20080;SDS011;10200;49.232;9.222;2023-12-07T04:43:02;19.37;;;9.50;;
20080;SDS011;10200;49.232;9.222;2023-12-07T04:45:28;20.00;;;10.03;;
20080;SDS011;10200;49.232;9.222;2023-12-07T04:47:55;13.00;;;9.60;;
20080;SDS011;10200;49.232;9.222;2023-12-07T04:50:22;39.27;;;11.77;;
20080;SDS011;10200;49.232;9.222;2023-12-07T04:52:48;21.53;;;11.43;;
20080;SDS011;10200;49.232;9.222;2023-12-07T04:55:14;31.40;;;12.53;;
20080;SDS011;10200;49.232;9.222;2023-12-07T04:57:41;26.80;;;12.27;;
20080;SDS011;10200;49.232;9.222;2023-12-07T05:00:07;26.13;;;12.70;;
20080;SDS011;10200;49.232;9.222;2023-12-07T05:02:36;24.10;;;13.10;;
20080;SDS011;10200;49.232;9.222;2023-12-07T05:05:02;25.17;;;13.03;;
20080;SDS011;10200;49.232;9.222;2023-12-07T05:07:28;27.20;;;13.10;;
20080;SDS011;10200;49.232;9.222;2023-12-07T05:09:55;22.03;;;12.73;;
20080;SDS011;10200;49.232;9.222;2023-12-07T05:12:21;38.20;;;15.23;;
20080;SDS011;10200;49.232;9.222;2023-12-07T05:14:47;29.57;;;14.77;;
20080;SDS011;10200;49.232;9.222;2023-12-07T05:17:13;22.03;;;14.50;;
20080;SDS011;10200;49.232;9.222;2023-12-07T05:19:39;23.67;;;13.57;;
20080;SDS011;10200;49.232;9.222;2023-12-07T05:22:05;22.40;;;13.27;;
20080;SDS011;10200;49.232;9.222;2023-12-07T05:24:30;24.30;;;13.40;;
20080;SDS011;10200;49.232;9.222;2023-12-07T05:26:59;19.57;;;12.97;;
20080;SDS011;10200;49.232;9.222;2023-12-07T05:29:25;19.87;;;11.73;;
20080;SDS011;10200;49.232;9.222;2023-12-07T05:31:51;23.07;;;13.20;;
20080;SDS011;10200;49.232;9.222;2023-12-07T05:34:18;21.13;;;12.23;;
20080;SDS011;10200;49.232;9.222;2023-12-07T05:36:44;23.37;;;11.03;;
20080;SDS011;10200;49.232;9.222;2023-12-07T05:39:11;20.90;;;13.63;;
20080;SDS011;10200;49.232;9.222;2023-12-07T05:41:38;21.23;;;12.97;;
20080;SDS011;10200;49.232;9.222;2023-12-07T05:44:04;20.23;;;13.27;;
20080;SDS011;10200;49.232;9.222;2023-12-07T05:46:31;20.33;;;13.37;;
20080;SDS011;10200;49.232;9.222;2023-12-07T05:48:57;25.77;;;14.40;;
20080;SDS011;10200;49.232;9.222;2023-12-07T05:51:24;23.23;;;13.87;;
20080;SDS011;10200;49.232;9.222;2023-12-07T05:53:50;19.97;;;12.90;;
20080;SDS011;10200;49.232;9.222;2023-12-07T05:56:19;19.13;;;12.87;;
20080;SDS011;10200;49.232;9.222;2023-12-07T05:58:48;23.20;;;13.90;;
20080;SDS011;10200;49.232;9.222;2023-12-07T06:01:16;20.40;;;13.53;;
20080;SDS011;10200;49.232;9.222;2023-12-07T06:03:42;18.60;;;12.97;;
20080;SDS011;10200;49.232;9.222;2023-12-07T06:06:09;19.43;;;13.03;;
20080;SDS011;10200;49.232;9.222;2023-12-07T06:08:36;17.40;;;11.80;;
20080;SDS011;10200;49.232;9.222;2023-12-07T06:11:02;18.27;;;12.17;;
20080;SDS011;10200;49.232;9.222;2023-12-07T06:13:28;19.67;;;12.40;;
20080;SDS011;10200;49.232;9.222;2023-12-07T06:15:54;18.77;;;12.97;;
20080;SDS011;10200;49.232;9.222;2023-12-07T06:18:19;24.30;;;12.83;;
20080;SDS011;10200;49.232;9.222;2023-12-07T06:20:45;21.43;;;12.83;;
20080;SDS011;10200;49.232;9.222;2023-12-07T06:23:10;23.97;;;13.00;;
20080;SDS011;10200;49.232;9.222;2023-12-07T06:25:38;24.87;;;14.90;;
20080;SDS011;10200;49.232;9.222;2023-12-07T06:28:04;25.30;;;13.30;;
20080;SDS011;10200;49.232;9.222;2023-12-07T06:30:30;24.17;;;13.60;;
20080;SDS011;10200;49.232;9.222;2023-12-07T06:32:55;21.60;;;13.67;;
20080;SDS011;10200;49.232;9.222;2023-12-07T06:35:21;21.83;;;13.37;;
20080;SDS011;10200;49.232;9.222;2023-12-07T06:37:47;21.53;;;14.23;;
20080;SDS011;10200;49.232;9.222;2023-12-07T06:40:12;18.60;;;12.70;;
20080;SDS011;10200;49.232;9.222;2023-12-07T06:42:39;19.60;;;12.33;;
20080;SDS011;10200;49.232;9.222;2023-12-07T06:45:06;29.17;;;17.00;;
20080;SDS011;10200;49.232;9.222;2023-12-07T06:47:36;26.00;;;14.30;;
20080;SDS011;10200;49.232;9.222;2023-12-07T06:50:03;22.73;;;15.33;;
20080;SDS011;10200;49.232;9.222;2023-12-07T06:52:29;23.33;;;14.83;;
20080;SDS011;10200;49.232;9.222;2023-12-07T06:54:55;24.27;;;14.10;;
20080;SDS011;10200;49.232;9.222;2023-12-07T06:57:21;20.53;;;13.00;;
20080;SDS011;10200;49.232;9.222;2023-12-07T06:59:46;22.67;;;14.00;;
20080;SDS011;10200;49.232;9.222;2023-12-07T07:02:12;23.37;;;14.70;;
20080;SDS011;10200;49.232;9.222;2023-12-07T07:04:39;22.87;;;12.60;;
20080;SDS011;10200;49.232;9.222;2023-12-07T07:07:05;21.63;;;14.00;;
20080;SDS011;10200;49.232;9.222;2023-12-07T07:09:30;23.20;;;13.87;;
20080;SDS011;10200;49.232;9.222;2023-12-07T07:11:56;23.53;;;13.73;;
20080;SDS011;10200;49.232;9.222;2023-12-07T07:14:22;23.03;;;13.63;;
20080;SDS011;10200;49.232;9.222;2023-12-07T07:16:47;26.23;;;14.50;;
20080;SDS011;10200;49.232;9.222;2023-12-07T07:19:13;21.70;;;14.63;;
20080;SDS011;10200;49.232;9.222;2023-12-07T07:21:41;24.60;;;15.23;;
20080;SDS011;10200;49.232;9.222;2023-12-07T07:24:17;24.67;;;14.90;;
20080;SDS011;10200;49.232;9.222;2023-12-07T07:26:46;25.90;;;16.10;;
20080;SDS011;10200;49.232;9.222;2023-12-07T07:29:12;29.03;;;16.37;;
20080;SDS011;10200;49.232;9.222;2023-12-07T07:31:37;27.00;;;16.00;;
20080;SDS011;10200;49.232;9.222;2023-12-07T07:34:03;23.60;;;15.07;;
20080;SDS011;10200;49.232;9.222;2023-12-07T07:36:29;26.27;;;15.93;;
20080;SDS011;10200;49.232;9.222;2023-12-07T07:38:56;23.83;;;15.37;;
20080;SDS011;10200;49.232;9.222;2023-12-07T07:41:22;21.17;;;14.20;;
20080;SDS011;10200;49.232;9.222;2023-12-07T07:43:48;24.17;;;14.13;;
20080;SDS011;10200;49.232;9.222;2023-12-07T07:46:14;20.33;;;13.97;;
20080;SDS011;10200;49.232;9.222;2023-12-07T07:48:39;26.33;;;16.67;;
20080;SDS011;10200;49.232;9.222;2023-12-07T07:51:06;24.27;;;15.30;;
20080;SDS011;10200;49.232;9.222;2023-12-07T07:53:32;24.07;;;15.23;;
20080;SDS011;10200;49.232;9.222;2023-12-07T07:55:59;21.70;;;14.57;;
20080;SDS011;10200;49.232;9.222;2023-12-07T07:58:24;24.53;;;14.63;;
20080;SDS011;10200;49.232;9.222;2023-12-07T08:00:50;21.03;;;14.13;;
20080;SDS011;10200;49.232;9.222;2023-12-07T08:03:17;23.20;;;15.00;;
20080;SDS011;10200;49.232;9.222;2023-12-07T08:05:42;22.23;;;15.07;;
20080;SDS011;10200;49.232;9.222;2023-12-07T08:08:08;25.23;;;15.27;;
20080;SDS011;10200;49.232;9.222;2023-12-07T08:10:34;23.10;;;14.57;;
20080;SDS011;10200;49.232;9.222;2023-12-07T08:13:01;27.93;;;16.33;;
20080;SDS011;10200;49.232;9.222;2023-12-07T08:15:28;22.77;;;14.87;;
20080;SDS011;10200;49.232;9.222;2023-12-07T08:17:54;24.43;;;14.67;;
20080;SDS011;10200;49.232;9.222;2023-12-07T08:20:21;20.13;;;14.50;;
20080;SDS011;10200;49.232;9.222;2023-12-07T08:22:47;20.17;;;13.43;;
20080;SDS011;10200;49.232;9.222;2023-12-07T08:25:13;24.80;;;15.80;;
20080;SDS011;10200;49.232;9.222;2023-12-07T08:27:39;24.83;;;14.77;;
20080;SDS011;10200;49.232;9.222;2023-12-07T08:30:05;21.63;;;14.67;;
20080;SDS011;10200;49.232;9.222;2023-12-07T08:32:34;23.10;;;15.87;;
20080;SDS011;10200;49.232;9.222;2023-12-07T08:35:01;24.30;;;15.23;;
20080;SDS011;10200;49.232;9.222;2023-12-07T08:37:27;28.20;;;15.90;;
20080;SDS011;10200;49.232;9.222;2023-12-07T08:39:52;27.07;;;16.43;;
20080;SDS011;10200;49.232;9.222;2023-12-07T08:42:18;26.07;;;16.37;;
20080;SDS011;10200;49.232;9.222;2023-12-07T08:44:43;25.97;;;16.87;;
20080;SDS011;10200;49.232;9.222;2023-12-07T08:47:09;26.00;;;15.23;;
20080;SDS011;10200;49.232;9.222;2023-12-07T08:49:36;26.43;;;15.47;;
20080;SDS011;10200;49.232;9.222;2023-12-07T08:52:03;26.90;;;16.43;;
20080;SDS011;10200;49.232;9.222;2023-12-07T08:54:29;22.57;;;15.50;;
20080;SDS011;10200;49.232;9.222;2023-12-07T08:56:55;25.17;;;16.00;;
20080;SDS011;10200;49.232;9.222;2023-12-07T08:59:21;25.80;;;15.43;;
20080;SDS011;10200;49.232;9.222;2023-12-07T09:01:46;23.73;;;15.47;;
20080;SDS011;10200;49.232;9.222;2023-12-07T09:04:14;23.07;;;15.23;;
20080;SDS011;10200;49.232;9.222;2023-12-07T09:06:45;24.33;;;14.27;;
20080;SDS011;10200;49.232;9.222;2023-12-07T09:09:11;25.40;;;15.13;;
20080;SDS011;10200;49.232;9.222;2023-12-07T09:11:38;25.67;;;16.00;;
20080;SDS011;10200;49.232;9.222;2023-12-07T09:14:04;26.77;;;15.90;;
20080;SDS011;10200;49.232;9.222;2023-12-07T09:16:31;31.07;;;18.37;;
20080;SDS011;10200;49.232;9.222;2023-12-07T09:18:58;30.17;;;17.53;;
20080;SDS011;10200;49.232;9.222;2023-12-07T09:21:24;28.33;;;17.80;;
20080;SDS011;10200;49.232;9.222;2023-12-07T09:23:51;22.37;;;15.10;;
20080;SDS011;10200;49.232;9.222;2023-12-07T09:26:17;24.17;;;13.93;;
20080;SDS011;10200;49.232;9.222;2023-12-07T09:28:43;21.80;;;13.37;;
20080;SDS011;10200;49.232;9.222;2023-12-07T09:31:09;19.00;;;13.83;;
20080;SDS011;10200;49.232;9.222;2023-12-07T09:33:35;21.10;;;13.37;;
20080;SDS011;10200;49.232;9.222;2023-12-07T09:36:02;24.97;;;14.10;;
20080;SDS011;10200;49.232;9.222;2023-12-07T09:38:35;26.33;;;14.57;;
20080;SDS011;10200;49.232;9.222;2023-12-07T09:41:02;22.97;;;14.23;;
20080;SDS011;10200;49.232;9.222;2023-12-07T09:43:32;21.27;;;14.00;;
20080;SDS011;10200;49.232;9.222;2023-12-07T09:45:59;23.47;;;15.00;;
20080;SDS011;10200;49.232;9.222;2023-12-07T09:48:31;21.30;;;13.73;;
20080;SDS011;10200;49.232;9.222;2023-12-07T09:50:59;19.87;;;13.73;;
20080;SDS011;10200;49.232;9.222;2023-12-07T09:53:26;18.23;;;12.70;;
20080;SDS011;10200;49.232;9.222;2023-12-07T09:55:54;23.53;;;14.07;;
20080;SDS011;10200;49.232;9.222;2023-12-07T09:58:19;19.47;;;13.70;;
20080;SDS011;10200;49.232;9.222;2023-12-07T10:00:47;22.60;;;13.63;;
20080;SDS011;10200;49.232;9.222;2023-12-07T10:03:22;20.73;;;12.07;;
20080;SDS011;10200;49.232;9.222;2023-12-07T10:08:29;20.67;;;12.77;;
20080;SDS011;10200;49.232;9.222;2023-12-07T10:11:09;21.50;;;13.30;;
20080;SDS011;10200;49.232;9.222;2023-12-07T10:13:38;20.53;;;13.13;;
20080;SDS011;10200;49.232;9.222;2023-12-07T10:16:07;21.13;;;14.13;;
20080;SDS011;10200;49.232;9.222;2023-12-07T10:18:37;18.77;;;12.93;;
20080;SDS011;10200;49.232;9.222;2023-12-07T10:21:07;18.80;;;13.53;;
20080;SDS011;10200;49.232;9.222;2023-12-07T10:23:34;18.90;;;12.50;;
20080;SDS011;10200;49.232;9.222;2023-12-07T10:26:00;19.77;;;12.50;;
20080;SDS011;10200;49.232;9.222;2023-12-07T10:28:28;23.67;;;14.17;;
20080;SDS011;10200;49.232;9.222;2023-12-07T10:30:54;19.67;;;13.23;;
20080;SDS011;10200;49.232;9.222;2023-12-07T10:33:25;19.93;;;13.20;;
20080;SDS011;10200;49.232;9.222;2023-12-07T10:35:58;20.20;;;13.00;;
20080;SDS011;10200;49.232;9.222;2023-12-07T10:38:25;18.70;;;13.00;;
20080;SDS011;10200;49.232;9.222;2023-12-07T10:40:56;16.47;;;12.43;;
20080;SDS011;10200;49.232;9.222;2023-12-07T10:43:27;19.27;;;13.27;;
20080;SDS011;10200;49.232;9.222;2023-12-07T10:45:53;19.03;;;11.97;;
20080;SDS011;10200;49.232;9.222;2023-12-07T10:48:20;20.93;;;13.60;;
20080;SDS011;10200;49.232;9.222;2023-12-07T10:50:46;20.37;;;12.83;;
20080;SDS011;10200;49.232;9.222;2023-12-07T10:53:19;21.27;;;13.53;;
20080;SDS011;10200;49.232;9.222;2023-12-07T10:55:47;21.50;;;12.63;;
20080;SDS011;10200;49.232;9.222;2023-12-07T10:58:17;20.47;;;13.20;;
20080;SDS011;10200;49.232;9.222;2023-12-07T11:00:45;19.07;;;12.10;;
20080;SDS011;10200;49.232;9.222;2023-12-07T11:03:15;17.90;;;12.63;;
20080;SDS011;10200;49.232;9.222;2023-12-07T11:05:43;20.27;;;13.00;;
20080;SDS011;10200;49.232;9.222;2023-12-07T11:08:11;23.40;;;12.77;;
20080;SDS011;10200;49.232;9.222;2023-12-07T11:10:43;21.00;;;13.07;;
20080;SDS011;10200;49.232;9.222;2023-12-07T11:13:13;21.07;;;12.37;;
20080;SDS011;10200;49.232;9.222;2023-12-07T11:15:43;18.00;;;11.83;;
20080;SDS011;10200;49.232;9.222;2023-12-07T11:18:09;15.70;;;11.50;;
20080;SDS011;10200;49.232;9.222;2023-12-07T11:20:42;16.90;;;11.63;;
20080;SDS011;10200;49.232;9.222;2023-12-07T11:23:15;15.57;;;10.87;;
20080;SDS011;10200;49.232;9.222;2023-12-07T11:25:47;21.90;;;11.00;;
20080;SDS011;10200;49.232;9.222;2023-12-07T11:28:16;17.67;;;10.97;;
20080;SDS011;10200;49.232;9.222;2023-12-07T11:30:46;20.63;;;11.43;;
20080;SDS011;10200;49.232;9.222;2023-12-07T11:33:15;17.17;;;10.97;;
20080;SDS011;10200;49.232;9.222;2023-12-07T11:38:29;17.17;;;12.17;;
20080;SDS011;10200;49.232;9.222;2023-12-07T11:40:59;16.90;;;11.57;;
20080;SDS011;10200;49.232;9.222;2023-12-07T11:46:06;15.97;;;10.03;;
20080;SDS011;10200;49.232;9.222;2023-12-07T11:48:34;16.17;;;10.33;;
20080;SDS011;10200;49.232;9.222;2023-12-07T11:51:02;18.20;;;10.37;;
20080;SDS011;10200;49.232;9.222;2023-12-07T11:53:30;18.50;;;11.70;;
20080;SDS011;10200;49.232;9.222;2023-12-07T11:56:02;17.67;;;10.83;;
20080;SDS011;10200;49.232;9.222;2023-12-07T11:58:29;15.83;;;11.13;;
20080;SDS011;10200;49.232;9.222;2023-12-07T12:00:56;18.03;;;10.77;;
20080;SDS011;10200;49.232;9.222;2023-12-07T12:03:24;17.40;;;10.90;;
20080;SDS011;10200;49.232;9.222;2023-12-07T12:05:54;18.93;;;11.60;;
20080;SDS011;10200;49.232;9.222;2023-12-07T12:08:20;21.03;;;13.13;;
20080;SDS011;10200;49.232;9.222;2023-12-07T12:10:47;20.37;;;12.43;;
20080;SDS011;10200;49.232;9.222;2023-12-07T12:13:15;16.10;;;11.23;;
20080;SDS011;10200;49.232;9.222;2023-12-07T12:15:41;16.67;;;10.20;;
20080;SDS011;10200;49.232;9.222;2023-12-07T12:18:07;16.47;;;11.13;;
20080;SDS011;10200;49.232;9.222;2023-12-07T12:20:33;15.70;;;10.93;;
20080;SDS011;10200;49.232;9.222;2023-12-07T12:23:00;17.80;;;11.10;;
20080;SDS011;10200;49.232;9.222;2023-12-07T12:25:28;18.20;;;10.63;;
20080;SDS011;10200;49.232;9.222;2023-12-07T12:28:04;18.53;;;11.17;;
20080;SDS011;10200;49.232;9.222;2023-12-07T12:30:31;14.10;;;9.73;;
20080;SDS011;10200;49.232;9.222;2023-12-07T12:33:04;15.53;;;9.60;;
20080;SDS011;10200;49.232;9.222;2023-12-07T12:35:29;13.33;;;9.53;;
20080;SDS011;10200;49.232;9.222;2023-12-07T12:37:56;13.63;;;9.37;;
20080;SDS011;10200;49.232;9.222;2023-12-07T12:40:22;14.43;;;9.57;;
20080;SDS011;10200;49.232;9.222;2023-12-07T12:42:49;11.27;;;8.50;;
20080;SDS011;10200;49.232;9.222;2023-12-07T12:45:17;16.03;;;9.03;;
20080;SDS011;10200;49.232;9.222;2023-12-07T12:47:46;11.70;;;8.03;;
20080;SDS011;10200;49.232;9.222;2023-12-07T12:50:33;13.97;;;8.80;;
20080;SDS011;10200;49.232;9.222;2023-12-07T12:52:59;14.77;;;8.47;;
20080;SDS011;10200;49.232;9.222;2023-12-07T12:55:26;10.37;;;7.57;;
20080;SDS011;10200;49.232;9.222;2023-12-07T12:57:55;11.83;;;8.07;;
20080;SDS011;10200;49.232;9.222;2023-12-07T13:00:21;10.10;;;7.40;;
20080;SDS011;10200;49.232;9.222;2023-12-07T13:02:49;11.90;;;7.97;;
20080;SDS011;10200;49.232;9.222;2023-12-07T13:05:15;11.27;;;7.87;;
20080;SDS011;10200;49.232;9.222;2023-12-07T13:07:41;13.00;;;8.10;;
20080;SDS011;10200;49.232;9.222;2023-12-07T13:10:09;12.37;;;7.73;;
20080;SDS011;10200;49.232;9.222;2023-12-07T13:12:36;15.30;;;8.03;;
20080;SDS011;10200;49.232;9.222;2023-12-07T13:15:02;9.10;;;6.63;;
20080;SDS011;10200;49.232;9.222;2023-12-07T13:17:28;9.30;;;6.90;;
20080;SDS011;10200;49.232;9.222;2023-12-07T13:19:54;13.53;;;7.47;;
20080;SDS011;10200;49.232;9.222;2023-12-07T13:22:20;13.57;;;7.80;;
20080;SDS011;10200;49.232;9.222;2023-12-07T13:24:47;11.70;;;8.23;;
20080;SDS011;10200;49.232;9.222;2023-12-07T13:27:14;11.87;;;6.87;;
20080;SDS011;10200;49.232;9.222;2023-12-07T13:29:40;13.13;;;7.23;;
20080;SDS011;10200;49.232;9.222;2023-12-07T13:32:06;11.47;;;7.27;;
20080;SDS011;10200;49.232;9.222;2023-12-07T13:34:32;11.93;;;7.87;;
20080;SDS011;10200;49.232;9.222;2023-12-07T13:36:58;10.47;;;7.07;;
20080;SDS011;10200;49.232;9.222;2023-12-07T13:39:25;13.40;;;6.80;;
20080;SDS011;10200;49.232;9.222;2023-12-07T13:41:52;11.53;;;8.40;;
20080;SDS011;10200;49.232;9.222;2023-12-07T13:44:19;11.97;;;7.80;;
20080;SDS011;10200;49.232;9.222;2023-12-07T13:46:46;12.03;;;7.63;;
20080;SDS011;10200;49.232;9.222;2023-12-07T13:49:11;10.33;;;7.20;;
20080;SDS011;10200;49.232;9.222;2023-12-07T13:51:39;11.90;;;9.30;;
20080;SDS011;10200;49.232;9.222;2023-12-07T13:54:05;10.13;;;7.00;;
20080;SDS011;10200;49.232;9.222;2023-12-07T13:56:32;8.17;;;6.50;;
20080;SDS011;10200;49.232;9.222;2023-12-07T13:58:59;13.93;;;7.53;;
20080;SDS011;10200;49.232;9.222;2023-12-07T14:01:27;9.43;;;6.63;;
20080;SDS011;10200;49.232;9.222;2023-12-07T14:03:53;10.33;;;6.93;;
20080;SDS011;10200;49.232;9.222;2023-12-07T14:06:22;8.50;;;6.60;;
20080;SDS011;10200;49.232;9.222;2023-12-07T14:08:51;8.57;;;6.73;;
20080;SDS011;10200;49.232;9.222;2023-12-07T14:11:17;11.77;;;6.30;;
20080;SDS011;10200;49.232;9.222;2023-12-07T14:13:43;10.57;;;6.90;;
20080;SDS011;10200;49.232;9.222;2023-12-07T14:16:12;11.13;;;6.83;;
20080;SDS011;10200;49.232;9.222;2023-12-07T14:18:38;10.10;;;6.63;;
20080;SDS011;10200;49.232;9.222;2023-12-07T14:21:04;8.50;;;6.10;;
20080;SDS011;10200;49.232;9.222;2023-12-07T14:23:30;12.27;;;7.87;;
20080;SDS011;10200;49.232;9.222;2023-12-07T14:25:56;10.07;;;6.50;;
20080;SDS011;10200;49.232;9.222;2023-12-07T14:28:23;9.07;;;7.00;;
20080;SDS011;10200;49.232;9.222;2023-12-07T14:30:49;10.70;;;6.40;;
20080;SDS011;10200;49.232;9.222;2023-12-07T14:33:21;10.07;;;6.20;;